sensor_id;sensor_type;location;lat;lon;timestamp;P1;durP1;ratioP1;P2;durP2;ratioP2
39776;SDS011;25453;48.162;14.510;2024-03-02T00:00:39;10.40;;;4.53;;
39776;SDS011;25453;48.162;14.510;2024-03-02T00:03:07;13.23;;;5.25;;
39776;SDS011;25453;48.162;14.510;2024-03-02T00:05:36;10.73;;;4.53;;
39776;SDS011;25453;48.162;14.510;2024-03-02T00:08:04;12.15;;;4.43;;
39776;SDS011;25453;48.162;14.510;2024-03-02T00:13:07;15.73;;;5.35;;
39776;SDS011;25453;48.162;14.510;2024-03-02T00:18:35;13.32;;;5.43;;
39776;SDS011;25453;48.162;14.510;2024-03-02T00:21:01;14.00;;;5.70;;
39776;SDS011;25453;48.162;14.510;2024-03-02T00:23:32;14.02;;;5.88;;
39776;SDS011;25453;48.162;14.510;2024-03-02T00:26:01;9.85;;;4.90;;
39776;SDS011;25453;48.162;14.510;2024-03-02T00:28:29;11.88;;;5.25;;
39776;SDS011;25453;48.162;14.510;2024-03-02T00:31:03;15.15;;;5.50;;
39776;SDS011;25453;48.162;14.510;2024-03-02T00:33:36;11.73;;;4.72;;
39776;SDS011;25453;48.162;14.510;2024-03-02T00:36:14;13.13;;;5.65;;
39776;SDS011;25453;48.162;14.510;2024-03-02T00:38:47;10.25;;;5.18;;
39776;SDS011;25453;48.162;14.510;2024-03-02T00:41:25;13.38;;;5.20;;
39776;SDS011;25453;48.162;14.510;2024-03-02T00:46:31;11.23;;;5.22;;
39776;SDS011;25453;48.162;14.510;2024-03-02T00:49:02;10.90;;;4.80;;
39776;SDS011;25453;48.162;14.510;2024-03-02T00:51:31;12.48;;;5.28;;
39776;SDS011;25453;48.162;14.510;2024-03-02T00:54:04;12.15;;;5.32;;
39776;SDS011;25453;48.162;14.510;2024-03-02T00:56:32;16.88;;;6.70;;
39776;SDS011;25453;48.162;14.510;2024-03-02T00:59:01;12.98;;;5.30;;
39776;SDS011;25453;48.162;14.510;2024-03-02T01:01:29;11.90;;;5.32;;
39776;SDS011;25453;48.162;14.510;2024-03-02T01:03:56;13.85;;;5.20;;
39776;SDS011;25453;48.162;14.510;2024-03-02T01:06:23;13.40;;;5.55;;
39776;SDS011;25453;48.162;14.510;2024-03-02T01:08:50;12.48;;;4.75;;
39776;SDS011;25453;48.162;14.510;2024-03-02T01:11:19;13.20;;;4.32;;
39776;SDS011;25453;48.162;14.510;2024-03-02T01:13:50;8.93;;;4.22;;
39776;SDS011;25453;48.162;14.510;2024-03-02T01:16:19;13.25;;;5.30;;
39776;SDS011;25453;48.162;14.510;2024-03-02T01:18:46;11.13;;;4.68;;
39776;SDS011;25453;48.162;14.510;2024-03-02T01:21:14;12.05;;;5.05;;
39776;SDS011;25453;48.162;14.510;2024-03-02T01:23:41;14.27;;;5.93;;
39776;SDS011;25453;48.162;14.510;2024-03-02T01:26:09;14.50;;;6.03;;
39776;SDS011;25453;48.162;14.510;2024-03-02T01:28:36;13.25;;;4.95;;
39776;SDS011;25453;48.162;14.510;2024-03-02T01:31:04;14.52;;;5.32;;
39776;SDS011;25453;48.162;14.510;2024-03-02T01:33:31;11.52;;;5.03;;
39776;SDS011;25453;48.162;14.510;2024-03-02T01:35:58;14.10;;;4.90;;
39776;SDS011;25453;48.162;14.510;2024-03-02T01:38:25;12.20;;;5.80;;
39776;SDS011;25453;48.162;14.510;2024-03-02T01:40:55;17.48;;;5.57;;
39776;SDS011;25453;48.162;14.510;2024-03-02T01:43:23;14.57;;;6.05;;
39776;SDS011;25453;48.162;14.510;2024-03-02T01:45:50;10.18;;;4.63;;
39776;SDS011;25453;48.162;14.510;2024-03-02T01:48:18;14.32;;;5.47;;
39776;SDS011;25453;48.162;14.510;2024-03-02T01:50:46;14.63;;;5.45;;
39776;SDS011;25453;48.162;14.510;2024-03-02T01:53:13;16.42;;;5.90;;
39776;SDS011;25453;48.162;14.510;2024-03-02T01:55:40;14.23;;;5.35;;
39776;SDS011;25453;48.162;14.510;2024-03-02T01:58:07;12.93;;;5.90;;
39776;SDS011;25453;48.162;14.510;2024-03-02T02:00:35;14.07;;;5.45;;
39776;SDS011;25453;48.162;14.510;2024-03-02T02:03:02;11.30;;;4.68;;
39776;SDS011;25453;48.162;14.510;2024-03-02T02:05:30;13.60;;;4.88;;
39776;SDS011;25453;48.162;14.510;2024-03-02T02:07:58;10.63;;;4.95;;
39776;SDS011;25453;48.162;14.510;2024-03-02T02:10:25;11.88;;;4.95;;
39776;SDS011;25453;48.162;14.510;2024-03-02T02:12:52;13.82;;;5.43;;
39776;SDS011;25453;48.162;14.510;2024-03-02T02:15:29;13.98;;;5.72;;
39776;SDS011;25453;48.162;14.510;2024-03-02T02:17:57;10.73;;;4.45;;
39776;SDS011;25453;48.162;14.510;2024-03-02T02:20:26;10.25;;;4.65;;
39776;SDS011;25453;48.162;14.510;2024-03-02T02:22:57;9.55;;;4.55;;
39776;SDS011;25453;48.162;14.510;2024-03-02T02:25:25;9.38;;;4.03;;
39776;SDS011;25453;48.162;14.510;2024-03-02T02:27:53;11.27;;;4.05;;
39776;SDS011;25453;48.162;14.510;2024-03-02T02:30:22;9.65;;;4.32;;
39776;SDS011;25453;48.162;14.510;2024-03-02T02:32:51;12.38;;;4.40;;
39776;SDS011;25453;48.162;14.510;2024-03-02T02:35:18;12.93;;;4.35;;
39776;SDS011;25453;48.162;14.510;2024-03-02T02:37:46;15.82;;;5.72;;
39776;SDS011;25453;48.162;14.510;2024-03-02T02:40:14;14.50;;;5.40;;
39776;SDS011;25453;48.162;14.510;2024-03-02T02:42:41;13.73;;;4.95;;
39776;SDS011;25453;48.162;14.510;2024-03-02T02:45:09;9.15;;;4.38;;
39776;SDS011;25453;48.162;14.510;2024-03-02T02:47:37;11.25;;;4.35;;
39776;SDS011;25453;48.162;14.510;2024-03-02T02:50:06;13.05;;;5.78;;
39776;SDS011;25453;48.162;14.510;2024-03-02T02:52:35;12.32;;;5.45;;
39776;SDS011;25453;48.162;14.510;2024-03-02T02:55:06;10.93;;;4.80;;
39776;SDS011;25453;48.162;14.510;2024-03-02T02:57:35;15.48;;;5.72;;
39776;SDS011;25453;48.162;14.510;2024-03-02T03:00:06;11.50;;;4.78;;
39776;SDS011;25453;48.162;14.510;2024-03-02T03:02:41;9.88;;;4.38;;
39776;SDS011;25453;48.162;14.510;2024-03-02T03:05:09;14.45;;;5.57;;
39776;SDS011;25453;48.162;14.510;2024-03-02T03:07:37;16.00;;;5.75;;
39776;SDS011;25453;48.162;14.510;2024-03-02T03:10:07;13.20;;;5.78;;
39776;SDS011;25453;48.162;14.510;2024-03-02T03:12:35;11.45;;;5.30;;
39776;SDS011;25453;48.162;14.510;2024-03-02T03:15:03;14.88;;;5.57;;
39776;SDS011;25453;48.162;14.510;2024-03-02T03:17:35;12.95;;;4.93;;
39776;SDS011;25453;48.162;14.510;2024-03-02T03:20:04;12.25;;;4.35;;
39776;SDS011;25453;48.162;14.510;2024-03-02T03:22:32;10.80;;;5.30;;
39776;SDS011;25453;48.162;14.510;2024-03-02T03:25:01;10.02;;;4.07;;
39776;SDS011;25453;48.162;14.510;2024-03-02T03:27:30;13.13;;;4.80;;
39776;SDS011;25453;48.162;14.510;2024-03-02T03:29:57;10.40;;;4.75;;
39776;SDS011;25453;48.162;14.510;2024-03-02T03:32:24;11.55;;;4.53;;
39776;SDS011;25453;48.162;14.510;2024-03-02T03:34:52;10.95;;;4.47;;
39776;SDS011;25453;48.162;14.510;2024-03-02T03:37:19;8.25;;;4.15;;
39776;SDS011;25453;48.162;14.510;2024-03-02T03:39:46;13.07;;;4.72;;
39776;SDS011;25453;48.162;14.510;2024-03-02T03:42:13;12.75;;;4.57;;
39776;SDS011;25453;48.162;14.510;2024-03-02T03:44:41;9.48;;;4.00;;
39776;SDS011;25453;48.162;14.510;2024-03-02T03:47:08;11.40;;;4.82;;
39776;SDS011;25453;48.162;14.510;2024-03-02T03:49:35;12.68;;;5.10;;
39776;SDS011;25453;48.162;14.510;2024-03-02T03:52:02;10.57;;;4.13;;
39776;SDS011;25453;48.162;14.510;2024-03-02T03:54:30;10.88;;;4.63;;
39776;SDS011;25453;48.162;14.510;2024-03-02T03:56:58;15.00;;;5.78;;
39776;SDS011;25453;48.162;14.510;2024-03-02T03:59:25;12.88;;;4.13;;
39776;SDS011;25453;48.162;14.510;2024-03-02T04:01:52;12.00;;;4.32;;
39776;SDS011;25453;48.162;14.510;2024-03-02T04:04:19;10.00;;;4.53;;
39776;SDS011;25453;48.162;14.510;2024-03-02T04:06:47;10.70;;;4.78;;
39776;SDS011;25453;48.162;14.510;2024-03-02T04:09:14;10.65;;;4.78;;
39776;SDS011;25453;48.162;14.510;2024-03-02T04:11:41;10.15;;;4.65;;
39776;SDS011;25453;48.162;14.510;2024-03-02T04:14:09;12.45;;;5.57;;
39776;SDS011;25453;48.162;14.510;2024-03-02T04:16:36;15.07;;;5.28;;
39776;SDS011;25453;48.162;14.510;2024-03-02T04:19:03;12.93;;;5.55;;
39776;SDS011;25453;48.162;14.510;2024-03-02T04:21:31;10.30;;;4.95;;
39776;SDS011;25453;48.162;14.510;2024-03-02T04:23:58;15.77;;;5.22;;
39776;SDS011;25453;48.162;14.510;2024-03-02T04:26:26;17.92;;;5.60;;
39776;SDS011;25453;48.162;14.510;2024-03-02T04:28:53;14.15;;;6.20;;
39776;SDS011;25453;48.162;14.510;2024-03-02T04:31:20;12.93;;;5.40;;
39776;SDS011;25453;48.162;14.510;2024-03-02T04:33:48;13.18;;;5.22;;
39776;SDS011;25453;48.162;14.510;2024-03-02T04:36:15;9.57;;;4.10;;
39776;SDS011;25453;48.162;14.510;2024-03-02T04:38:42;11.73;;;4.65;;
39776;SDS011;25453;48.162;14.510;2024-03-02T04:41:10;10.88;;;4.25;;
39776;SDS011;25453;48.162;14.510;2024-03-02T04:43:37;10.18;;;4.63;;
39776;SDS011;25453;48.162;14.510;2024-03-02T04:46:04;12.00;;;4.53;;
39776;SDS011;25453;48.162;14.510;2024-03-02T04:48:33;11.10;;;4.90;;
39776;SDS011;25453;48.162;14.510;2024-03-02T04:51:01;9.75;;;3.63;;
39776;SDS011;25453;48.162;14.510;2024-03-02T04:53:28;10.48;;;4.40;;
39776;SDS011;25453;48.162;14.510;2024-03-02T04:55:55;12.02;;;4.85;;
39776;SDS011;25453;48.162;14.510;2024-03-02T04:58:48;13.25;;;4.90;;
39776;SDS011;25453;48.162;14.510;2024-03-02T05:01:15;10.77;;;4.88;;
39776;SDS011;25453;48.162;14.510;2024-03-02T05:03:44;12.13;;;5.25;;
39776;SDS011;25453;48.162;14.510;2024-03-02T05:06:11;14.05;;;5.35;;
39776;SDS011;25453;48.162;14.510;2024-03-02T05:08:38;12.82;;;4.88;;
39776;SDS011;25453;48.162;14.510;2024-03-02T05:11:06;10.98;;;5.10;;
39776;SDS011;25453;48.162;14.510;2024-03-02T05:16:20;11.05;;;4.53;;
39776;SDS011;25453;48.162;14.510;2024-03-02T05:18:47;14.88;;;6.47;;
39776;SDS011;25453;48.162;14.510;2024-03-02T05:21:14;18.33;;;6.80;;
39776;SDS011;25453;48.162;14.510;2024-03-02T05:23:41;14.75;;;6.68;;
39776;SDS011;25453;48.162;14.510;2024-03-02T05:26:09;16.73;;;6.53;;
39776;SDS011;25453;48.162;14.510;2024-03-02T05:28:39;20.77;;;6.85;;
39776;SDS011;25453;48.162;14.510;2024-03-02T05:31:06;22.08;;;8.40;;
39776;SDS011;25453;48.162;14.510;2024-03-02T05:33:33;27.17;;;8.95;;
39776;SDS011;25453;48.162;14.510;2024-03-02T05:36:00;20.38;;;9.02;;
39776;SDS011;25453;48.162;14.510;2024-03-02T05:38:28;22.42;;;8.75;;
39776;SDS011;25453;48.162;14.510;2024-03-02T05:40:55;20.02;;;8.00;;
39776;SDS011;25453;48.162;14.510;2024-03-02T05:43:22;18.77;;;9.00;;
39776;SDS011;25453;48.162;14.510;2024-03-02T05:45:50;16.90;;;7.35;;
39776;SDS011;25453;48.162;14.510;2024-03-02T05:48:17;17.23;;;7.75;;
39776;SDS011;25453;48.162;14.510;2024-03-02T05:50:44;17.67;;;7.57;;
39776;SDS011;25453;48.162;14.510;2024-03-02T05:53:11;21.95;;;8.40;;
39776;SDS011;25453;48.162;14.510;2024-03-02T05:55:38;25.70;;;9.98;;
39776;SDS011;25453;48.162;14.510;2024-03-02T05:58:06;22.65;;;8.93;;
39776;SDS011;25453;48.162;14.510;2024-03-02T06:00:33;19.00;;;7.82;;
39776;SDS011;25453;48.162;14.510;2024-03-02T06:03:00;24.88;;;9.52;;
39776;SDS011;25453;48.162;14.510;2024-03-02T06:05:28;29.23;;;11.77;;
39776;SDS011;25453;48.162;14.510;2024-03-02T06:07:55;30.27;;;11.60;;
39776;SDS011;25453;48.162;14.510;2024-03-02T06:10:22;28.23;;;10.73;;
39776;SDS011;25453;48.162;14.510;2024-03-02T06:12:49;29.30;;;10.45;;
39776;SDS011;25453;48.162;14.510;2024-03-02T06:15:17;26.13;;;9.18;;
39776;SDS011;25453;48.162;14.510;2024-03-02T06:17:45;21.88;;;8.43;;
39776;SDS011;25453;48.162;14.510;2024-03-02T06:20:12;22.52;;;9.02;;
39776;SDS011;25453;48.162;14.510;2024-03-02T06:22:39;19.92;;;8.60;;
39776;SDS011;25453;48.162;14.510;2024-03-02T06:25:07;19.65;;;6.63;;
39776;SDS011;25453;48.162;14.510;2024-03-02T06:27:35;18.80;;;7.93;;
39776;SDS011;25453;48.162;14.510;2024-03-02T06:30:02;22.17;;;8.07;;
39776;SDS011;25453;48.162;14.510;2024-03-02T06:32:30;21.25;;;9.07;;
39776;SDS011;25453;48.162;14.510;2024-03-02T06:34:58;20.88;;;8.10;;
39776;SDS011;25453;48.162;14.510;2024-03-02T06:37:26;19.40;;;7.88;;
39776;SDS011;25453;48.162;14.510;2024-03-02T06:39:53;25.77;;;9.40;;
39776;SDS011;25453;48.162;14.510;2024-03-02T06:42:21;20.40;;;8.00;;
39776;SDS011;25453;48.162;14.510;2024-03-02T06:44:48;21.40;;;8.38;;
39776;SDS011;25453;48.162;14.510;2024-03-02T06:47:15;18.38;;;7.60;;
39776;SDS011;25453;48.162;14.510;2024-03-02T06:49:43;21.67;;;8.90;;
39776;SDS011;25453;48.162;14.510;2024-03-02T06:52:10;18.02;;;7.35;;
39776;SDS011;25453;48.162;14.510;2024-03-02T06:54:37;20.75;;;7.85;;
39776;SDS011;25453;48.162;14.510;2024-03-02T06:57:04;18.77;;;7.28;;
39776;SDS011;25453;48.162;14.510;2024-03-02T06:59:31;17.30;;;7.72;;
39776;SDS011;25453;48.162;14.510;2024-03-02T07:02:00;18.42;;;7.53;;
39776;SDS011;25453;48.162;14.510;2024-03-02T07:04:28;18.33;;;7.20;;
39776;SDS011;25453;48.162;14.510;2024-03-02T07:06:55;18.02;;;7.78;;
39776;SDS011;25453;48.162;14.510;2024-03-02T07:09:23;15.70;;;6.72;;
39776;SDS011;25453;48.162;14.510;2024-03-02T07:11:50;16.10;;;7.10;;
39776;SDS011;25453;48.162;14.510;2024-03-02T07:14:17;19.10;;;6.68;;
39776;SDS011;25453;48.162;14.510;2024-03-02T07:16:45;14.38;;;6.68;;
39776;SDS011;25453;48.162;14.510;2024-03-02T07:19:12;14.25;;;7.53;;
39776;SDS011;25453;48.162;14.510;2024-03-02T07:21:39;17.30;;;6.35;;
39776;SDS011;25453;48.162;14.510;2024-03-02T07:24:07;17.90;;;7.60;;
39776;SDS011;25453;48.162;14.510;2024-03-02T07:26:36;17.00;;;7.78;;
39776;SDS011;25453;48.162;14.510;2024-03-02T07:29:06;24.67;;;9.65;;
39776;SDS011;25453;48.162;14.510;2024-03-02T07:31:33;19.55;;;8.02;;
39776;SDS011;25453;48.162;14.510;2024-03-02T07:34:00;18.58;;;8.23;;
39776;SDS011;25453;48.162;14.510;2024-03-02T07:36:28;17.45;;;7.38;;
39776;SDS011;25453;48.162;14.510;2024-03-02T07:38:55;19.55;;;8.02;;
39776;SDS011;25453;48.162;14.510;2024-03-02T07:41:23;20.52;;;7.80;;
39776;SDS011;25453;48.162;14.510;2024-03-02T07:43:50;17.67;;;6.55;;
39776;SDS011;25453;48.162;14.510;2024-03-02T07:46:17;14.77;;;7.45;;
39776;SDS011;25453;48.162;14.510;2024-03-02T07:48:44;12.75;;;6.10;;
39776;SDS011;25453;48.162;14.510;2024-03-02T07:51:11;15.02;;;6.78;;
39776;SDS011;25453;48.162;14.510;2024-03-02T07:53:40;14.35;;;6.72;;
39776;SDS011;25453;48.162;14.510;2024-03-02T07:56:07;16.75;;;6.68;;
39776;SDS011;25453;48.162;14.510;2024-03-02T07:58:35;15.27;;;7.18;;
39776;SDS011;25453;48.162;14.510;2024-03-02T08:01:03;18.73;;;8.57;;
39776;SDS011;25453;48.162;14.510;2024-03-02T08:03:31;17.92;;;7.45;;
39776;SDS011;25453;48.162;14.510;2024-03-02T08:06:01;17.40;;;7.53;;
39776;SDS011;25453;48.162;14.510;2024-03-02T08:08:28;18.10;;;7.53;;
39776;SDS011;25453;48.162;14.510;2024-03-02T08:10:55;19.02;;;7.82;;
39776;SDS011;25453;48.162;14.510;2024-03-02T08:13:25;17.08;;;8.48;;
39776;SDS011;25453;48.162;14.510;2024-03-02T08:15:52;23.90;;;10.65;;
39776;SDS011;25453;48.162;14.510;2024-03-02T08:18:19;24.20;;;10.57;;
39776;SDS011;25453;48.162;14.510;2024-03-02T08:20:47;24.00;;;10.95;;
39776;SDS011;25453;48.162;14.510;2024-03-02T08:23:14;23.65;;;10.35;;
39776;SDS011;25453;48.162;14.510;2024-03-02T08:25:41;21.08;;;8.48;;
39776;SDS011;25453;48.162;14.510;2024-03-02T08:28:09;17.00;;;8.00;;
39776;SDS011;25453;48.162;14.510;2024-03-02T08:30:36;17.90;;;7.80;;
39776;SDS011;25453;48.162;14.510;2024-03-02T08:33:03;16.67;;;7.70;;
39776;SDS011;25453;48.162;14.510;2024-03-02T08:35:32;18.08;;;8.82;;
39776;SDS011;25453;48.162;14.510;2024-03-02T08:38:03;17.70;;;7.20;;
39776;SDS011;25453;48.162;14.510;2024-03-02T08:40:31;18.15;;;7.57;;
39776;SDS011;25453;48.162;14.510;2024-03-02T08:42:58;17.80;;;8.00;;
39776;SDS011;25453;48.162;14.510;2024-03-02T08:45:25;16.88;;;7.18;;
39776;SDS011;25453;48.162;14.510;2024-03-02T08:47:53;18.30;;;7.60;;
39776;SDS011;25453;48.162;14.510;2024-03-02T08:50:20;17.77;;;7.82;;
39776;SDS011;25453;48.162;14.510;2024-03-02T08:52:47;17.17;;;6.72;;
39776;SDS011;25453;48.162;14.510;2024-03-02T08:55:14;18.95;;;7.43;;
39776;SDS011;25453;48.162;14.510;2024-03-02T08:57:41;15.40;;;6.95;;
39776;SDS011;25453;48.162;14.510;2024-03-02T09:00:09;15.65;;;7.10;;
39776;SDS011;25453;48.162;14.510;2024-03-02T09:02:37;19.27;;;8.05;;
39776;SDS011;25453;48.162;14.510;2024-03-02T09:05:04;18.88;;;8.60;;
39776;SDS011;25453;48.162;14.510;2024-03-02T09:07:32;16.80;;;6.63;;
39776;SDS011;25453;48.162;14.510;2024-03-02T09:09:59;15.35;;;7.40;;
39776;SDS011;25453;48.162;14.510;2024-03-02T09:12:27;16.80;;;6.78;;
39776;SDS011;25453;48.162;14.510;2024-03-02T09:14:54;15.68;;;6.07;;
39776;SDS011;25453;48.162;14.510;2024-03-02T09:17:21;18.42;;;7.82;;
39776;SDS011;25453;48.162;14.510;2024-03-02T09:19:48;19.77;;;8.10;;
39776;SDS011;25453;48.162;14.510;2024-03-02T09:22:19;20.92;;;7.80;;
39776;SDS011;25453;48.162;14.510;2024-03-02T09:24:46;22.58;;;8.32;;
39776;SDS011;25453;48.162;14.510;2024-03-02T09:27:13;20.40;;;8.50;;
39776;SDS011;25453;48.162;14.510;2024-03-02T09:29:40;22.30;;;8.85;;
39776;SDS011;25453;48.162;14.510;2024-03-02T09:32:08;19.77;;;8.35;;
39776;SDS011;25453;48.162;14.510;2024-03-02T09:34:40;19.13;;;8.13;;
39776;SDS011;25453;48.162;14.510;2024-03-02T09:37:07;20.40;;;7.78;;
39776;SDS011;25453;48.162;14.510;2024-03-02T09:39:35;16.10;;;7.28;;
39776;SDS011;25453;48.162;14.510;2024-03-02T09:42:03;16.90;;;6.68;;
39776;SDS011;25453;48.162;14.510;2024-03-02T09:44:31;13.65;;;6.40;;
39776;SDS011;25453;48.162;14.510;2024-03-02T09:46:59;15.57;;;6.60;;
39776;SDS011;25453;48.162;14.510;2024-03-02T09:49:27;13.35;;;7.05;;
39776;SDS011;25453;48.162;14.510;2024-03-02T09:51:54;12.98;;;5.85;;
39776;SDS011;25453;48.162;14.510;2024-03-02T09:54:22;14.10;;;6.18;;
39776;SDS011;25453;48.162;14.510;2024-03-02T09:56:50;12.55;;;5.82;;
39776;SDS011;25453;48.162;14.510;2024-03-02T09:59:17;15.30;;;6.45;;
39776;SDS011;25453;48.162;14.510;2024-03-02T10:01:59;11.93;;;5.40;;
39776;SDS011;25453;48.162;14.510;2024-03-02T10:04:29;10.77;;;4.93;;
39776;SDS011;25453;48.162;14.510;2024-03-02T10:09:40;12.00;;;4.32;;
39776;SDS011;25453;48.162;14.510;2024-03-02T10:12:10;8.93;;;4.10;;
39776;SDS011;25453;48.162;14.510;2024-03-02T10:14:39;9.30;;;4.18;;
39776;SDS011;25453;48.162;14.510;2024-03-02T10:17:07;8.13;;;3.45;;
39776;SDS011;25453;48.162;14.510;2024-03-02T10:19:39;12.07;;;4.68;;
39776;SDS011;25453;48.162;14.510;2024-03-02T10:22:07;11.80;;;5.22;;
39776;SDS011;25453;48.162;14.510;2024-03-02T10:24:39;8.70;;;4.25;;
39776;SDS011;25453;48.162;14.510;2024-03-02T10:27:09;10.38;;;4.72;;
39776;SDS011;25453;48.162;14.510;2024-03-02T10:29:41;11.85;;;4.70;;
39776;SDS011;25453;48.162;14.510;2024-03-02T10:32:09;9.93;;;5.10;;
39776;SDS011;25453;48.162;14.510;2024-03-02T10:34:41;12.38;;;5.30;;
39776;SDS011;25453;48.162;14.510;2024-03-02T10:37:12;10.00;;;4.57;;
39776;SDS011;25453;48.162;14.510;2024-03-02T10:39:40;10.07;;;4.40;;
39776;SDS011;25453;48.162;14.510;2024-03-02T10:42:08;11.95;;;5.40;;
39776;SDS011;25453;48.162;14.510;2024-03-02T10:44:36;10.70;;;5.18;;
39776;SDS011;25453;48.162;14.510;2024-03-02T10:47:04;10.18;;;3.83;;
39776;SDS011;25453;48.162;14.510;2024-03-02T10:49:32;9.90;;;4.50;;
39776;SDS011;25453;48.162;14.510;2024-03-02T10:52:00;8.15;;;3.60;;
39776;SDS011;25453;48.162;14.510;2024-03-02T10:54:28;9.65;;;3.83;;
39776;SDS011;25453;48.162;14.510;2024-03-02T10:57:03;12.15;;;4.55;;
39776;SDS011;25453;48.162;14.510;2024-03-02T10:59:35;10.25;;;4.40;;
39776;SDS011;25453;48.162;14.510;2024-03-02T11:02:05;9.90;;;4.32;;
39776;SDS011;25453;48.162;14.510;2024-03-02T11:04:37;8.73;;;4.25;;
39776;SDS011;25453;48.162;14.510;2024-03-02T11:07:07;10.25;;;3.60;;
39776;SDS011;25453;48.162;14.510;2024-03-02T11:09:38;12.15;;;4.40;;
39776;SDS011;25453;48.162;14.510;2024-03-02T11:15:10;10.53;;;4.60;;
39776;SDS011;25453;48.162;14.510;2024-03-02T11:17:41;9.15;;;3.63;;
39776;SDS011;25453;48.162;14.510;2024-03-02T11:20:09;9.85;;;4.35;;
39776;SDS011;25453;48.162;14.510;2024-03-02T11:22:37;11.20;;;5.10;;
39776;SDS011;25453;48.162;14.510;2024-03-02T11:25:04;11.90;;;4.88;;
39776;SDS011;25453;48.162;14.510;2024-03-02T11:33:02;8.68;;;3.88;;
39776;SDS011;25453;48.162;14.510;2024-03-02T11:35:40;9.25;;;3.92;;
39776;SDS011;25453;48.162;14.510;2024-03-02T11:38:15;10.18;;;4.38;;
39776;SDS011;25453;48.162;14.510;2024-03-02T11:40:44;9.18;;;4.57;;
39776;SDS011;25453;48.162;14.510;2024-03-02T11:43:11;12.30;;;5.80;;
39776;SDS011;25453;48.162;14.510;2024-03-02T11:45:41;13.48;;;5.55;;
39776;SDS011;25453;48.162;14.510;2024-03-02T11:48:14;17.25;;;7.68;;
39776;SDS011;25453;48.162;14.510;2024-03-02T11:50:46;16.30;;;7.13;;
39776;SDS011;25453;48.162;14.510;2024-03-02T11:53:16;14.68;;;6.65;;
39776;SDS011;25453;48.162;14.510;2024-03-02T11:55:45;16.90;;;6.88;;
39776;SDS011;25453;48.162;14.510;2024-03-02T11:58:16;17.05;;;6.32;;
39776;SDS011;25453;48.162;14.510;2024-03-02T12:00:49;14.20;;;5.50;;
39776;SDS011;25453;48.162;14.510;2024-03-02T12:03:18;14.13;;;5.75;;
39776;SDS011;25453;48.162;14.510;2024-03-02T12:05:56;15.85;;;7.10;;
39776;SDS011;25453;48.162;14.510;2024-03-02T12:08:23;22.27;;;7.88;;
39776;SDS011;25453;48.162;14.510;2024-03-02T12:11:01;17.40;;;8.02;;
39776;SDS011;25453;48.162;14.510;2024-03-02T12:13:30;19.25;;;8.38;;
39776;SDS011;25453;48.162;14.510;2024-03-02T12:15:58;15.35;;;6.97;;
39776;SDS011;25453;48.162;14.510;2024-03-02T12:18:26;17.48;;;6.88;;
39776;SDS011;25453;48.162;14.510;2024-03-02T12:20:53;18.88;;;7.75;;
39776;SDS011;25453;48.162;14.510;2024-03-02T12:23:25;19.33;;;8.00;;
39776;SDS011;25453;48.162;14.510;2024-03-02T12:25:53;16.88;;;6.28;;
39776;SDS011;25453;48.162;14.510;2024-03-02T12:28:20;17.88;;;7.85;;
39776;SDS011;25453;48.162;14.510;2024-03-02T12:30:48;18.67;;;7.88;;
39776;SDS011;25453;48.162;14.510;2024-03-02T12:33:16;24.98;;;8.50;;
39776;SDS011;25453;48.162;14.510;2024-03-02T12:35:44;17.05;;;7.32;;
39776;SDS011;25453;48.162;14.510;2024-03-02T12:38:11;18.48;;;7.45;;
39776;SDS011;25453;48.162;14.510;2024-03-02T12:40:38;16.77;;;7.50;;
39776;SDS011;25453;48.162;14.510;2024-03-02T12:43:06;17.77;;;7.40;;
39776;SDS011;25453;48.162;14.510;2024-03-02T12:45:34;17.85;;;8.45;;
39776;SDS011;25453;48.162;14.510;2024-03-02T12:48:02;18.83;;;7.95;;
39776;SDS011;25453;48.162;14.510;2024-03-02T12:50:31;19.42;;;7.30;;
39776;SDS011;25453;48.162;14.510;2024-03-02T12:52:59;15.73;;;6.50;;
39776;SDS011;25453;48.162;14.510;2024-03-02T12:55:27;17.05;;;7.70;;
39776;SDS011;25453;48.162;14.510;2024-03-02T12:57:55;15.02;;;6.00;;
39776;SDS011;25453;48.162;14.510;2024-03-02T13:00:23;25.63;;;10.43;;
39776;SDS011;25453;48.162;14.510;2024-03-02T13:02:50;21.58;;;9.25;;
39776;SDS011;25453;48.162;14.510;2024-03-02T13:05:18;19.08;;;8.07;;
39776;SDS011;25453;48.162;14.510;2024-03-02T13:07:50;15.90;;;7.60;;
39776;SDS011;25453;48.162;14.510;2024-03-02T13:10:17;15.90;;;6.80;;
39776;SDS011;25453;48.162;14.510;2024-03-02T13:12:45;12.52;;;5.57;;
39776;SDS011;25453;48.162;14.510;2024-03-02T13:15:12;11.40;;;4.57;;
39776;SDS011;25453;48.162;14.510;2024-03-02T13:17:46;12.10;;;4.57;;
39776;SDS011;25453;48.162;14.510;2024-03-02T13:20:14;7.85;;;3.60;;
39776;SDS011;25453;48.162;14.510;2024-03-02T13:22:41;9.95;;;3.78;;
39776;SDS011;25453;48.162;14.510;2024-03-02T13:25:09;9.55;;;3.97;;
39776;SDS011;25453;48.162;14.510;2024-03-02T13:27:38;10.13;;;4.93;;
39776;SDS011;25453;48.162;14.510;2024-03-02T13:30:05;15.98;;;6.10;;
39776;SDS011;25453;48.162;14.510;2024-03-02T13:32:35;15.80;;;6.88;;
39776;SDS011;25453;48.162;14.510;2024-03-02T13:35:02;19.05;;;7.88;;
39776;SDS011;25453;48.162;14.510;2024-03-02T13:37:30;19.08;;;8.05;;
39776;SDS011;25453;48.162;14.510;2024-03-02T13:39:57;16.67;;;7.05;;
39776;SDS011;25453;48.162;14.510;2024-03-02T13:42:24;14.77;;;6.50;;
39776;SDS011;25453;48.162;14.510;2024-03-02T13:44:51;13.55;;;6.07;;
39776;SDS011;25453;48.162;14.510;2024-03-02T13:47:19;14.93;;;6.15;;
39776;SDS011;25453;48.162;14.510;2024-03-02T13:49:47;22.70;;;8.80;;
39776;SDS011;25453;48.162;14.510;2024-03-02T13:52:15;18.77;;;8.50;;
39776;SDS011;25453;48.162;14.510;2024-03-02T13:54:44;17.30;;;7.93;;
39776;SDS011;25453;48.162;14.510;2024-03-02T13:57:13;16.80;;;7.15;;
39776;SDS011;25453;48.162;14.510;2024-03-02T13:59:41;20.52;;;8.75;;
39776;SDS011;25453;48.162;14.510;2024-03-02T14:02:09;20.50;;;9.13;;
39776;SDS011;25453;48.162;14.510;2024-03-02T14:04:38;19.40;;;8.85;;
39776;SDS011;25453;48.162;14.510;2024-03-02T14:07:06;22.38;;;8.52;;
39776;SDS011;25453;48.162;14.510;2024-03-02T14:09:34;21.52;;;8.88;;
39776;SDS011;25453;48.162;14.510;2024-03-02T14:12:03;18.85;;;8.25;;
39776;SDS011;25453;48.162;14.510;2024-03-02T14:14:32;17.20;;;7.20;;
39776;SDS011;25453;48.162;14.510;2024-03-02T14:16:59;13.20;;;6.60;;
39776;SDS011;25453;48.162;14.510;2024-03-02T14:19:30;16.90;;;7.32;;
39776;SDS011;25453;48.162;14.510;2024-03-02T14:21:58;15.60;;;7.68;;
39776;SDS011;25453;48.162;14.510;2024-03-02T14:24:26;13.73;;;6.30;;
39776;SDS011;25453;48.162;14.510;2024-03-02T14:26:55;14.43;;;6.43;;
39776;SDS011;25453;48.162;14.510;2024-03-02T14:29:35;17.08;;;7.30;;
39776;SDS011;25453;48.162;14.510;2024-03-02T14:32:04;16.23;;;5.80;;
39776;SDS011;25453;48.162;14.510;2024-03-02T14:34:32;11.25;;;5.32;;
39776;SDS011;25453;48.162;14.510;2024-03-02T14:37:02;13.05;;;5.85;;
39776;SDS011;25453;48.162;14.510;2024-03-02T14:39:30;17.00;;;7.43;;
39776;SDS011;25453;48.162;14.510;2024-03-02T14:42:01;15.32;;;6.97;;
39776;SDS011;25453;48.162;14.510;2024-03-02T14:44:29;13.93;;;6.90;;
39776;SDS011;25453;48.162;14.510;2024-03-02T14:46:56;14.60;;;6.57;;
39776;SDS011;25453;48.162;14.510;2024-03-02T14:49:25;15.13;;;6.57;;
39776;SDS011;25453;48.162;14.510;2024-03-02T14:51:53;17.60;;;8.00;;